createdAt,value
2017-12-24T00:00:37.045Z,8.50
2017-12-24T00:03:04.772Z,8.50
2017-12-24T00:05:32.453Z,8.50
2017-12-24T00:08:00.177Z,8.40
2017-12-24T00:10:27.859Z,8.40
2017-12-24T00:12:56.043Z,8.40
2017-12-24T00:15:23.754Z,8.50
2017-12-24T00:17:51.617Z,8.50
2017-12-24T00:20:20.057Z,8.40
2017-12-24T00:22:47.780Z,8.50
2017-12-24T00:25:15.527Z,8.40
2017-12-24T00:27:43.259Z,8.50
2017-12-24T00:30:12.565Z,8.50
2017-12-24T00:32:41.616Z,8.50
2017-12-24T00:35:09.333Z,8.50
2017-12-24T00:37:37.105Z,8.50
2017-12-24T00:40:04.840Z,8.50
2017-12-24T00:42:33.295Z,8.50
2017-12-24T00:45:01.052Z,8.40
2017-12-24T00:47:28.739Z,8.40
2017-12-24T00:49:57.346Z,8.50
2017-12-24T00:52:25.037Z,8.50
2017-12-24T00:54:52.739Z,8.50
2017-12-24T00:57:27.494Z,8.50
2017-12-24T00:59:57.045Z,8.50
2017-12-24T01:02:26.064Z,8.50
2017-12-24T01:04:57.572Z,8.50
2017-12-24T01:07:26.133Z,8.60
2017-12-24T01:09:53.912Z,8.60
2017-12-24T01:12:21.579Z,8.50
2017-12-24T01:14:51.252Z,8.60
2017-12-24T01:17:19.056Z,8.50
2017-12-24T01:19:46.904Z,8.50
2017-12-24T01:22:26.855Z,8.50
2017-12-24T01:24:57.607Z,8.50
2017-12-24T01:27:29.843Z,8.50
2017-12-24T01:30:14.505Z,8.50
2017-12-24T01:32:42.894Z,8.50
2017-12-24T01:35:10.741Z,8.50
2017-12-24T01:37:44.614Z,8.50
2017-12-24T01:40:12.372Z,8.50
2017-12-24T01:42:40.040Z,8.50
2017-12-24T01:45:07.940Z,8.50
2017-12-24T01:47:47.536Z,8.50
2017-12-24T01:50:16.759Z,8.50
2017-12-24T01:52:45.624Z,8.50
2017-12-24T01:55:13.477Z,8.40
2017-12-24T01:57:42.922Z,8.50
2017-12-24T02:00:10.759Z,8.50
2017-12-24T02:02:40.260Z,8.50
2017-12-24T02:05:07.963Z,8.50
2017-12-24T02:07:35.701Z,8.50
2017-12-24T02:10:05.571Z,8.50
2017-12-24T02:12:39.662Z,8.50
2017-12-24T02:15:09.227Z,8.50
2017-12-24T02:17:37.739Z,8.50
2017-12-24T02:20:06.364Z,8.50
2017-12-24T02:22:34.104Z,8.50
2017-12-24T02:25:01.760Z,8.60
2017-12-24T02:27:30.281Z,8.50
2017-12-24T02:29:57.924Z,8.50
2017-12-24T02:32:25.636Z,8.60
2017-12-24T02:34:53.287Z,8.60
2017-12-24T02:37:20.979Z,8.50
2017-12-24T02:39:48.635Z,8.50
2017-12-24T02:42:17.111Z,8.50
2017-12-24T02:44:45.754Z,8.50
2017-12-24T02:47:13.474Z,8.50
2017-12-24T02:49:47.271Z,8.50
2017-12-24T02:52:14.983Z,8.40
2017-12-24T02:54:50.773Z,8.40
2017-12-24T02:57:18.477Z,8.40
2017-12-24T02:59:48.735Z,8.40
2017-12-24T03:02:17.208Z,8.50
2017-12-24T03:04:44.868Z,8.50
2017-12-24T03:07:14.383Z,8.40
2017-12-24T03:09:44.516Z,8.40
2017-12-24T03:12:12.239Z,8.40
2017-12-24T03:14:39.910Z,8.40
2017-12-24T03:17:08.385Z,8.40
2017-12-24T03:19:36.815Z,8.40
2017-12-24T03:22:04.586Z,8.30
2017-12-24T03:24:32.591Z,8.30
2017-12-24T03:27:00.784Z,8.30
2017-12-24T03:29:29.875Z,8.40
2017-12-24T03:31:58.179Z,8.30
2017-12-24T03:37:12.507Z,8.40
2017-12-24T03:39:41.062Z,8.30
2017-12-24T03:42:08.928Z,8.30
2017-12-24T03:44:38.503Z,8.30
2017-12-24T03:47:06.289Z,8.30
2017-12-24T03:49:33.991Z,8.30
2017-12-24T03:52:01.663Z,8.40
2017-12-24T03:54:29.379Z,8.40
2017-12-24T03:56:57.091Z,8.30
2017-12-24T03:59:24.815Z,8.30
2017-12-24T04:01:53.256Z,8.40
2017-12-24T04:04:20.956Z,8.30
2017-12-24T04:06:49.371Z,8.30
2017-12-24T04:09:17.071Z,8.30
2017-12-24T04:11:44.737Z,8.30
2017-12-24T04:14:12.486Z,8.30
2017-12-24T04:16:40.155Z,8.20
2017-12-24T04:19:07.850Z,8.20
2017-12-24T04:21:35.520Z,8.30
2017-12-24T04:24:03.220Z,8.40
2017-12-24T04:26:30.895Z,8.40
2017-12-24T04:28:58.613Z,8.40
2017-12-24T04:31:26.269Z,8.30
2017-12-24T04:33:53.932Z,8.40
2017-12-24T04:36:21.646Z,8.30
2017-12-24T04:38:50.059Z,8.40
2017-12-24T04:41:17.772Z,8.30
2017-12-24T04:43:45.420Z,8.30
2017-12-24T04:46:13.114Z,8.40
2017-12-24T04:48:40.773Z,8.30
2017-12-24T04:51:08.491Z,8.20
2017-12-24T04:53:36.137Z,8.20
2017-12-24T04:56:03.844Z,8.20
2017-12-24T04:58:32.259Z,8.40
2017-12-24T05:00:59.956Z,8.40
2017-12-24T05:03:27.646Z,8.40
2017-12-24T05:05:56.203Z,8.30
2017-12-24T05:08:23.876Z,8.30
2017-12-24T05:10:52.359Z,8.30
2017-12-24T05:13:20.790Z,8.20
2017-12-24T05:15:48.479Z,8.20
2017-12-24T05:18:16.171Z,8.20
2017-12-24T05:20:43.864Z,8.30
2017-12-24T05:23:11.526Z,8.30
2017-12-24T05:25:39.223Z,8.30
2017-12-24T05:28:07.651Z,8.30
2017-12-24T05:30:35.375Z,8.20
2017-12-24T05:33:03.796Z,8.20
2017-12-24T05:35:31.523Z,8.20
2017-12-24T05:37:59.235Z,8.20
2017-12-24T05:40:26.928Z,8.30
2017-12-24T05:42:55.419Z,8.30
2017-12-24T05:45:23.078Z,8.30
2017-12-24T05:47:50.797Z,8.30
2017-12-24T05:50:18.454Z,8.20
2017-12-24T05:52:46.201Z,8.20
2017-12-24T05:55:13.847Z,8.20
2017-12-24T05:57:41.543Z,8.20
2017-12-24T06:00:09.389Z,8.20
2017-12-24T06:02:39.818Z,8.20
2017-12-24T06:05:08.381Z,8.30
2017-12-24T06:07:36.353Z,8.30
2017-12-24T06:10:04.412Z,8.20
2017-12-24T06:12:32.238Z,8.20
2017-12-24T06:14:59.962Z,8.20
2017-12-24T06:17:27.692Z,8.30
2017-12-24T06:19:55.401Z,8.30
2017-12-24T06:22:25.655Z,8.30
2017-12-24T06:24:54.661Z,8.30
2017-12-24T06:27:23.307Z,8.20
2017-12-24T06:29:52.761Z,8.30
2017-12-24T06:32:21.563Z,8.30
2017-12-24T06:34:50.355Z,8.30
2017-12-24T06:37:18.703Z,8.30
2017-12-24T06:39:46.512Z,8.30
2017-12-24T06:42:14.932Z,8.20
2017-12-24T06:44:42.689Z,8.20
2017-12-24T06:47:10.350Z,8.20
2017-12-24T06:49:38.048Z,8.20
2017-12-24T06:52:05.800Z,8.20
2017-12-24T06:54:33.525Z,8.20
2017-12-24T06:57:03.228Z,8.20
2017-12-24T06:59:31.031Z,8.20
2017-12-24T07:01:58.697Z,8.20
2017-12-24T07:04:29.209Z,8.20
2017-12-24T07:06:56.961Z,8.20
2017-12-24T07:09:24.894Z,8.20
2017-12-24T07:11:53.161Z,8.20
2017-12-24T07:14:20.930Z,8.20
2017-12-24T07:16:48.587Z,8.20
2017-12-24T07:19:16.321Z,8.20
2017-12-24T07:21:44.821Z,8.20
2017-12-24T07:24:12.651Z,8.20
2017-12-24T07:26:40.339Z,8.20
2017-12-24T07:29:12.412Z,8.20
2017-12-24T07:31:40.126Z,8.20
2017-12-24T07:34:07.854Z,8.20
2017-12-24T07:36:35.554Z,8.20
2017-12-24T07:39:03.324Z,8.20
2017-12-24T07:41:31.063Z,8.20
2017-12-24T07:44:01.064Z,8.20
2017-12-24T07:46:29.082Z,8.20
2017-12-24T07:48:57.504Z,8.20
2017-12-24T07:51:26.235Z,8.20
2017-12-24T07:53:55.698Z,8.30
2017-12-24T07:56:24.224Z,8.20
2017-12-24T07:58:52.715Z,8.20
2017-12-24T08:01:20.750Z,8.20
2017-12-24T08:03:48.450Z,8.20
2017-12-24T08:06:16.211Z,8.20
2017-12-24T08:08:43.913Z,8.20
2017-12-24T08:11:11.708Z,8.20
2017-12-24T08:13:39.869Z,8.20
2017-12-24T08:16:08.347Z,8.20
2017-12-24T08:18:36.040Z,8.20
2017-12-24T08:21:03.829Z,8.20
2017-12-24T08:23:31.624Z,8.20
2017-12-24T08:26:00.067Z,8.20
2017-12-24T08:28:27.719Z,8.20
2017-12-24T08:30:55.420Z,8.30
2017-12-24T08:33:23.200Z,8.30
2017-12-24T08:35:50.988Z,8.30
2017-12-24T08:38:18.755Z,8.20
2017-12-24T08:40:46.451Z,8.20
2017-12-24T08:43:14.244Z,8.30
2017-12-24T08:45:42.707Z,8.30
2017-12-24T08:48:10.448Z,8.30
2017-12-24T08:50:38.874Z,8.40
2017-12-24T08:53:07.333Z,8.40
2017-12-24T08:55:35.573Z,8.30
2017-12-24T08:58:03.675Z,8.30
2017-12-24T09:00:32.726Z,8.40
2017-12-24T09:03:02.494Z,8.40
2017-12-24T09:05:30.930Z,8.40
2017-12-24T09:08:00.555Z,8.40
2017-12-24T09:10:30.583Z,8.40
2017-12-24T09:13:00.360Z,8.40
2017-12-24T09:15:28.439Z,8.40
2017-12-24T09:17:57.278Z,8.40
2017-12-24T09:20:26.758Z,8.40
2017-12-24T09:22:56.714Z,8.40
2017-12-24T09:25:25.619Z,8.40
2017-12-24T09:27:54.608Z,8.40
2017-12-24T09:30:22.344Z,8.40
2017-12-24T09:32:50.079Z,8.50
2017-12-24T09:35:17.727Z,8.50
2017-12-24T09:37:46.363Z,8.50
2017-12-24T09:40:14.090Z,8.40
2017-12-24T09:42:41.835Z,8.50
2017-12-24T09:45:09.490Z,8.50
2017-12-24T09:47:38.094Z,8.50
2017-12-24T09:50:05.754Z,8.50
2017-12-24T09:52:34.289Z,8.50
2017-12-24T09:55:01.988Z,8.50
2017-12-24T09:57:29.791Z,8.40
2017-12-24T09:59:57.499Z,8.40
2017-12-24T10:02:25.156Z,8.50
2017-12-24T10:04:53.046Z,8.50
2017-12-24T10:07:20.702Z,8.50
2017-12-24T10:09:48.443Z,8.50
2017-12-24T10:12:17.134Z,8.50
2017-12-24T10:14:44.830Z,8.50
2017-12-24T10:17:12.581Z,8.50
2017-12-24T10:19:40.336Z,8.50
2017-12-24T10:22:10.563Z,8.50
2017-12-24T10:24:38.962Z,8.40
2017-12-24T10:27:06.615Z,8.40
2017-12-24T10:29:34.445Z,8.40
2017-12-24T10:32:02.183Z,8.40
2017-12-24T10:34:29.884Z,8.40
2017-12-24T10:36:57.559Z,8.40
2017-12-24T10:39:25.272Z,8.40
2017-12-24T10:41:52.931Z,8.40
2017-12-24T10:44:23.989Z,8.40
2017-12-24T10:46:51.657Z,8.40
2017-12-24T10:49:19.388Z,8.40
2017-12-24T10:51:47.060Z,8.50
2017-12-24T10:54:14.897Z,8.50
2017-12-24T10:56:43.375Z,8.40
2017-12-24T10:59:19.114Z,8.40
2017-12-24T11:01:47.587Z,8.40
2017-12-24T11:04:15.246Z,8.40
2017-12-24T11:06:43.412Z,8.50
2017-12-24T11:09:11.110Z,8.40
2017-12-24T11:11:38.831Z,8.40
2017-12-24T11:14:09.574Z,8.40
2017-12-24T11:16:38.425Z,8.40
2017-12-24T11:19:07.594Z,8.40
2017-12-24T11:21:37.124Z,8.40
2017-12-24T11:24:06.206Z,8.50
2017-12-24T11:26:35.300Z,8.60
2017-12-24T11:29:03.899Z,8.60
2017-12-24T11:31:34.013Z,8.60
2017-12-24T11:34:04.294Z,8.60
2017-12-24T11:36:32.499Z,8.60
2017-12-24T11:39:01.656Z,8.60
2017-12-24T11:41:30.491Z,8.60
2017-12-24T11:43:59.039Z,8.60
2017-12-24T11:46:27.801Z,8.60
2017-12-24T11:48:56.646Z,8.50
2017-12-24T11:51:25.671Z,8.60
2017-12-24T11:53:57.853Z,8.60
2017-12-24T11:56:32.198Z,8.60
2017-12-24T11:59:00.545Z,8.60
2017-12-24T12:01:29.574Z,8.70
2017-12-24T12:03:58.310Z,8.70
2017-12-24T12:06:27.347Z,8.60
2017-12-24T12:08:55.556Z,8.60
2017-12-24T12:11:25.634Z,8.60
2017-12-24T12:13:54.451Z,8.60
2017-12-24T12:16:23.227Z,8.60
2017-12-24T12:18:52.099Z,8.70
2017-12-24T12:21:20.810Z,8.60
2017-12-24T12:23:50.632Z,8.60
2017-12-24T12:26:20.156Z,8.60
2017-12-24T12:28:50.405Z,8.60
2017-12-24T12:31:19.852Z,8.60
2017-12-24T12:33:49.851Z,8.70
2017-12-24T12:36:19.148Z,8.70
2017-12-24T12:38:48.626Z,8.70
2017-12-24T12:41:18.412Z,8.60
2017-12-24T12:43:47.470Z,8.60
2017-12-24T12:46:16.871Z,8.60
2017-12-24T12:48:49.622Z,8.70
2017-12-24T12:51:18.287Z,8.70
2017-12-24T12:53:46.595Z,8.60
2017-12-24T12:56:16.007Z,8.60
2017-12-24T12:58:45.534Z,8.60
2017-12-24T13:01:14.404Z,8.60
2017-12-24T13:03:45.564Z,8.70
2017-12-24T13:06:14.161Z,8.60
2017-12-24T13:08:42.905Z,8.70
2017-12-24T13:11:12.520Z,8.60
2017-12-24T13:13:41.724Z,8.60
2017-12-24T13:16:11.091Z,8.60
2017-12-24T13:18:39.333Z,8.70
2017-12-24T13:21:08.602Z,8.60
2017-12-24T13:23:38.519Z,8.60
2017-12-24T13:26:06.624Z,8.60
2017-12-24T13:28:35.873Z,8.60
2017-12-24T13:31:05.036Z,8.70
2017-12-24T13:33:33.179Z,8.70
2017-12-24T13:36:03.700Z,8.70
2017-12-24T13:38:32.953Z,8.60
2017-12-24T13:41:02.934Z,8.60
2017-12-24T13:43:33.507Z,8.60
2017-12-24T13:46:04.894Z,8.60
2017-12-24T13:48:35.210Z,8.60
2017-12-24T13:51:05.127Z,8.70
2017-12-24T13:53:33.305Z,8.70
2017-12-24T13:56:07.295Z,8.70
2017-12-24T13:58:36.699Z,8.60
2017-12-24T14:01:07.107Z,8.70
2017-12-24T14:03:37.911Z,8.70
2017-12-24T14:06:07.855Z,8.60
2017-12-24T14:08:36.549Z,8.70
2017-12-24T14:11:06.556Z,8.60
2017-12-24T14:13:36.680Z,8.60
2017-12-24T14:16:05.415Z,8.50
2017-12-24T14:18:34.206Z,8.60
2017-12-24T14:21:01.944Z,8.50
2017-12-24T14:23:30.447Z,8.60
2017-12-24T14:25:58.339Z,8.60
2017-12-24T14:28:32.169Z,8.60
2017-12-24T14:31:00.619Z,8.50
2017-12-24T14:33:28.353Z,8.60
2017-12-24T14:35:56.977Z,8.60
2017-12-24T14:38:24.736Z,8.60
2017-12-24T14:40:52.525Z,8.60
2017-12-24T14:43:20.291Z,8.60
2017-12-24T14:45:48.237Z,8.50
2017-12-24T14:48:16.932Z,8.60
2017-12-24T14:50:46.437Z,8.50
2017-12-24T14:53:14.930Z,8.60
2017-12-24T14:55:43.403Z,8.60
2017-12-24T14:58:11.995Z,8.60
2017-12-24T15:00:40.415Z,8.50
2017-12-24T15:03:09.879Z,8.50
2017-12-24T15:05:38.291Z,8.50
2017-12-24T15:08:07.506Z,8.50
2017-12-24T15:10:35.215Z,8.50
2017-12-24T15:13:03.726Z,8.50
2017-12-24T15:15:31.383Z,8.50
2017-12-24T15:17:59.226Z,8.50
2017-12-24T15:20:26.883Z,8.40
2017-12-24T15:22:54.647Z,8.40
2017-12-24T15:25:23.204Z,8.40
2017-12-24T15:27:51.679Z,8.40
2017-12-24T15:30:20.100Z,8.40
2017-12-24T15:32:47.802Z,8.40
2017-12-24T15:35:15.507Z,8.40
2017-12-24T15:37:43.179Z,8.40
2017-12-24T15:40:10.885Z,8.40
2017-12-24T15:42:38.539Z,8.40
2017-12-24T15:45:06.243Z,8.40
2017-12-24T15:47:33.912Z,8.40
2017-12-24T15:50:01.614Z,8.40
2017-12-24T15:52:29.331Z,8.30
2017-12-24T15:54:56.982Z,8.40
2017-12-24T15:57:24.690Z,8.40
2017-12-24T15:59:52.343Z,8.40
2017-12-24T16:02:20.043Z,8.40
2017-12-24T16:04:48.463Z,8.40
2017-12-24T16:07:16.179Z,8.40
2017-12-24T16:09:44.601Z,8.40
2017-12-24T16:12:12.340Z,8.40
2017-12-24T16:14:40.000Z,8.30
2017-12-24T16:17:07.723Z,8.30
2017-12-24T16:19:35.383Z,8.40
2017-12-24T16:22:03.035Z,8.30
2017-12-24T16:24:30.738Z,8.40
2017-12-24T16:26:58.391Z,8.40
2017-12-24T16:29:26.123Z,8.30
2017-12-24T16:31:53.779Z,8.30
2017-12-24T16:34:21.435Z,8.30
2017-12-24T16:36:49.144Z,8.30
2017-12-24T16:39:16.795Z,8.30
2017-12-24T16:41:44.551Z,8.30
2017-12-24T16:44:12.210Z,8.30
2017-12-24T16:46:39.922Z,8.30
2017-12-24T16:49:07.579Z,8.30
2017-12-24T16:51:35.648Z,8.30
2017-12-24T16:54:03.307Z,8.30
2017-12-24T16:56:30.969Z,8.30
2017-12-24T16:58:58.836Z,8.30
2017-12-24T17:01:26.549Z,8.20
2017-12-24T17:03:54.259Z,8.20
2017-12-24T17:06:21.924Z,8.20
2017-12-24T17:08:49.747Z,8.20
2017-12-24T17:11:17.421Z,8.20
2017-12-24T17:13:45.103Z,8.20
2017-12-24T17:16:12.831Z,8.30
2017-12-24T17:18:40.482Z,8.20
2017-12-24T17:21:08.217Z,8.30
2017-12-24T17:23:38.315Z,8.20
2017-12-24T17:26:06.799Z,8.30
2017-12-24T17:28:34.524Z,8.30
2017-12-24T17:31:02.299Z,8.30
2017-12-24T17:33:30.988Z,8.20
2017-12-24T17:35:58.706Z,8.20
2017-12-24T17:38:26.353Z,8.20
2017-12-24T17:40:54.019Z,8.20
2017-12-24T17:43:21.738Z,8.30
2017-12-24T17:45:50.187Z,8.30
2017-12-24T17:48:17.911Z,8.20
2017-12-24T17:50:45.563Z,8.20
2017-12-24T17:53:13.631Z,8.30
2017-12-24T17:55:41.425Z,8.30
2017-12-24T17:58:09.074Z,8.30
2017-12-24T18:00:36.791Z,8.30
2017-12-24T18:03:08.298Z,8.30
2017-12-24T18:05:36.878Z,8.30
2017-12-24T18:08:04.537Z,8.30
2017-12-24T18:10:32.252Z,8.30
2017-12-24T18:13:00.810Z,8.20
2017-12-24T18:15:28.523Z,8.20
2017-12-24T18:17:56.271Z,8.20
2017-12-24T18:20:23.920Z,8.20
2017-12-24T18:22:51.647Z,8.30
2017-12-24T18:25:19.947Z,8.20
2017-12-24T18:27:48.428Z,8.20
2017-12-24T18:30:16.855Z,8.20
2017-12-24T18:32:44.770Z,8.20
2017-12-24T18:35:13.258Z,8.10
2017-12-24T18:37:40.983Z,8.10
2017-12-24T18:40:08.655Z,8.10
2017-12-24T18:42:37.131Z,8.10
2017-12-24T18:45:05.556Z,8.10
2017-12-24T18:47:33.262Z,8.10
2017-12-24T18:50:00.976Z,8.10
2017-12-24T18:52:28.639Z,8.00
2017-12-24T18:54:56.346Z,8.00
2017-12-24T18:57:24.771Z,7.90
2017-12-24T18:59:52.479Z,7.90
2017-12-24T19:02:20.909Z,8.10
2017-12-24T19:04:48.615Z,8.00
2017-12-24T19:07:16.322Z,8.00
2017-12-24T19:09:43.983Z,8.00
2017-12-24T19:12:11.699Z,8.10
2017-12-24T19:14:40.119Z,8.00
2017-12-24T19:17:07.834Z,8.00
2017-12-24T19:19:36.275Z,8.10
2017-12-24T19:22:03.983Z,8.10
2017-12-24T19:24:32.459Z,8.10
2017-12-24T19:27:00.936Z,8.00
2017-12-24T19:29:29.355Z,8.10
2017-12-24T19:31:57.015Z,8.10
2017-12-24T19:34:24.723Z,8.10
2017-12-24T19:36:52.376Z,8.10
2017-12-24T19:39:20.110Z,8.10
2017-12-24T19:41:47.830Z,8.10
2017-12-24T19:44:15.579Z,8.20
2017-12-24T19:46:44.097Z,8.20
2017-12-24T19:49:11.738Z,8.10
2017-12-24T19:51:39.407Z,8.10
2017-12-24T19:54:07.135Z,8.10
2017-12-24T19:56:35.619Z,8.10
2017-12-24T19:59:04.047Z,8.10
2017-12-24T20:01:31.710Z,8.10
2017-12-24T20:03:59.455Z,8.10
2017-12-24T20:06:27.179Z,8.20
2017-12-24T20:08:55.594Z,8.20
2017-12-24T20:11:23.250Z,8.20
2017-12-24T20:13:51.059Z,8.10
2017-12-24T20:16:18.715Z,8.10
2017-12-24T20:18:46.427Z,8.10
2017-12-24T20:21:14.081Z,8.10
2017-12-24T20:23:41.800Z,8.10
2017-12-24T20:26:10.233Z,8.10
2017-12-24T20:28:37.951Z,8.10
2017-12-24T20:31:06.368Z,8.10
2017-12-24T20:33:34.019Z,8.10
2017-12-24T20:36:01.728Z,8.10
2017-12-24T20:38:29.383Z,8.20
2017-12-24T20:40:57.123Z,8.20
2017-12-24T20:43:24.779Z,8.10
2017-12-24T20:45:52.701Z,8.00
2017-12-24T20:48:20.351Z,8.10
2017-12-24T20:50:48.830Z,8.10
2017-12-24T20:53:17.252Z,8.10
2017-12-24T20:55:44.976Z,8.10
2017-12-24T20:58:12.703Z,8.00
2017-12-24T21:00:40.351Z,8.00
2017-12-24T21:03:08.066Z,8.00
2017-12-24T21:05:35.765Z,8.00
2017-12-24T21:08:04.559Z,8.00
2017-12-24T21:10:32.462Z,8.00
2017-12-24T21:13:00.172Z,7.90
2017-12-24T21:15:27.882Z,7.90
2017-12-24T21:17:56.298Z,8.00
2017-12-24T21:20:24.015Z,8.00
2017-12-24T21:22:52.426Z,8.00
2017-12-24T21:25:20.119Z,8.00
2017-12-24T21:27:47.844Z,8.00
2017-12-24T21:30:15.588Z,8.00
2017-12-24T21:32:43.368Z,8.00
2017-12-24T21:35:11.059Z,8.00
2017-12-24T21:37:38.715Z,8.00
2017-12-24T21:40:06.441Z,8.00
2017-12-24T21:42:34.210Z,8.10
2017-12-24T21:45:01.919Z,8.10
2017-12-24T21:47:29.795Z,8.00
2017-12-24T21:49:58.283Z,8.10
2017-12-24T21:52:25.939Z,8.10
2017-12-24T21:54:54.406Z,8.10
2017-12-24T21:57:22.888Z,8.10
2017-12-24T21:59:51.323Z,8.10
2017-12-24T22:02:19.044Z,8.10
2017-12-24T22:04:46.695Z,8.00
2017-12-24T22:07:14.446Z,8.10
2017-12-24T22:09:42.866Z,8.00
2017-12-24T22:12:10.551Z,8.00
2017-12-24T22:14:38.259Z,8.10
2017-12-24T22:17:06.061Z,8.00
2017-12-24T22:19:33.850Z,8.00
2017-12-24T22:22:01.559Z,8.00
2017-12-24T22:24:29.279Z,8.00
2017-12-24T22:26:56.927Z,8.00
2017-12-24T22:29:24.634Z,8.10
2017-12-24T22:31:52.290Z,8.10
2017-12-24T22:34:20.004Z,8.10
2017-12-24T22:36:47.692Z,8.00
2017-12-24T22:39:16.183Z,8.00
2017-12-24T22:41:43.838Z,8.00
2017-12-24T22:44:11.516Z,8.00
2017-12-24T22:46:39.233Z,8.00
2017-12-24T22:49:06.898Z,8.00
2017-12-24T22:51:35.315Z,8.00
2017-12-24T22:54:03.027Z,8.00
2017-12-24T22:56:30.691Z,8.00
2017-12-24T22:58:59.237Z,8.00
2017-12-24T23:01:26.896Z,8.00
2017-12-24T23:03:54.562Z,8.00
2017-12-24T23:06:22.299Z,8.00
2017-12-24T23:08:49.959Z,8.00
2017-12-24T23:11:17.616Z,8.00
2017-12-24T23:13:45.332Z,8.00
2017-12-24T23:16:13.769Z,8.00
2017-12-24T23:18:41.429Z,7.90
2017-12-24T23:21:09.163Z,7.90
2017-12-24T23:23:36.831Z,7.90
2017-12-24T23:26:04.505Z,7.90
2017-12-24T23:28:32.231Z,8.00
2017-12-24T23:30:59.892Z,8.00
2017-12-24T23:33:27.606Z,7.90
2017-12-24T23:35:55.303Z,7.90
2017-12-24T23:38:23.026Z,8.00
2017-12-24T23:40:50.738Z,8.00
2017-12-24T23:43:18.414Z,7.90
2017-12-24T23:45:46.135Z,8.00
2017-12-24T23:48:14.552Z,8.00
2017-12-24T23:50:42.263Z,7.90
2017-12-24T23:53:10.689Z,8.00
2017-12-24T23:55:38.405Z,7.90
2017-12-24T23:58:06.818Z,7.90
